createdAt,value
2022-11-17T00:00:34.478Z,9.60
2022-11-17T00:03:02.392Z,9.60
2022-11-17T00:05:30.289Z,9.60
2022-11-17T00:07:58.211Z,9.60
2022-11-17T00:10:27.185Z,9.60
2022-11-17T00:13:13.964Z,9.60
2022-11-17T00:15:44.033Z,9.60
2022-11-17T00:18:31.835Z,9.60
2022-11-17T00:21:17.393Z,9.60
2022-11-17T00:23:48.300Z,9.60
2022-11-17T00:26:17.618Z,9.60
2022-11-17T00:28:47.106Z,9.60
2022-11-17T00:31:33.347Z,9.50
2022-11-17T00:34:07.634Z,9.60
2022-11-17T00:36:38.649Z,9.60
2022-11-17T00:39:07.399Z,9.50
2022-11-17T00:41:35.430Z,9.50
2022-11-17T00:44:05.384Z,9.50
2022-11-17T00:46:33.649Z,9.50
2022-11-17T00:49:01.601Z,9.50
2022-11-17T00:51:30.807Z,9.60
2022-11-17T00:53:58.854Z,9.50
2022-11-17T00:56:27.393Z,9.50
2022-11-17T00:58:55.584Z,9.50
2022-11-17T01:01:25.132Z,9.50
2022-11-17T01:04:02.660Z,9.50
2022-11-17T01:06:32.532Z,9.50
2022-11-17T01:09:00.954Z,9.50
2022-11-17T01:11:29.453Z,9.50
2022-11-17T01:13:58.894Z,9.40
2022-11-17T01:16:28.958Z,9.50
2022-11-17T01:18:59.037Z,9.40
2022-11-17T01:21:27.936Z,9.40
2022-11-17T01:23:58.500Z,9.40
2022-11-17T01:26:28.823Z,9.40
2022-11-17T01:28:57.057Z,9.40
2022-11-17T01:31:28.747Z,9.40
2022-11-17T01:33:57.420Z,9.40
2022-11-17T01:36:30.234Z,9.40
2022-11-17T01:38:58.276Z,9.40
2022-11-17T01:41:28.462Z,9.40
2022-11-17T01:43:58.042Z,9.40
2022-11-17T01:46:34.052Z,9.50
2022-11-17T01:49:06.166Z,9.50
2022-11-17T01:51:38.283Z,9.50
2022-11-17T01:54:07.118Z,9.50
2022-11-17T01:56:40.060Z,9.50
2022-11-17T01:59:13.804Z,9.50
2022-11-17T02:01:55.614Z,9.50
2022-11-17T02:04:26.608Z,9.60
2022-11-17T02:06:59.187Z,9.60
2022-11-17T02:09:28.597Z,9.60
2022-11-17T02:11:58.097Z,9.70
2022-11-17T02:14:26.055Z,9.70
2022-11-17T02:16:55.425Z,9.70
2022-11-17T02:19:26.231Z,9.70
2022-11-17T02:22:22.068Z,9.70
2022-11-17T02:25:26.677Z,9.70
2022-11-17T02:28:07.125Z,9.70
2022-11-17T02:30:39.091Z,9.80
2022-11-17T02:33:13.844Z,9.80
2022-11-17T02:35:47.673Z,9.80
2022-11-17T02:38:24.530Z,9.80
2022-11-17T02:40:57.128Z,9.80
2022-11-17T02:43:50.728Z,9.90
2022-11-17T02:46:22.014Z,9.90
2022-11-17T02:48:54.297Z,9.90
2022-11-17T02:51:25.297Z,9.90
2022-11-17T02:54:00.046Z,10.00
2022-11-17T02:56:27.979Z,9.90
2022-11-17T02:59:01.237Z,9.90
2022-11-17T03:02:07.574Z,10.00
2022-11-17T03:04:46.630Z,9.90
2022-11-17T03:07:31.769Z,10.00
2022-11-17T03:10:12.216Z,10.00
2022-11-17T03:12:47.981Z,10.00
2022-11-17T03:15:27.144Z,10.10
2022-11-17T03:18:03.514Z,10.10
2022-11-17T03:20:38.005Z,10.10
2022-11-17T03:23:10.899Z,10.10
2022-11-17T03:25:42.028Z,10.10
2022-11-17T03:28:11.606Z,10.10
2022-11-17T03:30:45.181Z,10.10
2022-11-17T03:33:17.430Z,10.00
2022-11-17T03:35:51.032Z,10.10
2022-11-17T03:38:20.974Z,10.10
2022-11-17T03:40:51.441Z,10.00
2022-11-17T03:43:21.354Z,10.00
2022-11-17T03:45:52.473Z,10.00
2022-11-17T03:48:25.618Z,10.00
2022-11-17T03:50:58.204Z,10.00
2022-11-17T03:53:26.355Z,10.00
2022-11-17T03:55:59.080Z,10.00
2022-11-17T03:58:31.019Z,10.00
2022-11-17T04:01:04.605Z,10.00
2022-11-17T04:03:34.374Z,10.00
2022-11-17T04:06:02.850Z,10.00
2022-11-17T04:08:31.769Z,10.00
2022-11-17T04:11:17.061Z,10.00
2022-11-17T04:14:02.541Z,10.00
2022-11-17T04:16:32.032Z,10.00
2022-11-17T04:18:59.966Z,10.10
2022-11-17T04:21:27.948Z,10.10
2022-11-17T04:23:58.826Z,10.00
2022-11-17T04:26:46.628Z,10.10
2022-11-17T04:29:14.531Z,10.10
2022-11-17T04:31:43.903Z,10.10
2022-11-17T04:34:11.821Z,10.10
2022-11-17T04:36:44.273Z,10.10
2022-11-17T04:39:13.258Z,10.20
2022-11-17T04:41:57.387Z,10.20
2022-11-17T04:44:28.006Z,10.20
2022-11-17T04:46:58.249Z,10.20
2022-11-17T04:49:27.109Z,10.20
2022-11-17T04:51:55.438Z,10.20
2022-11-17T04:54:25.152Z,10.20
2022-11-17T04:56:53.861Z,10.20
2022-11-17T04:59:21.942Z,10.20
2022-11-17T05:01:50.145Z,10.30
2022-11-17T05:04:41.244Z,10.30
2022-11-17T05:07:10.040Z,10.30
2022-11-17T05:09:38.178Z,10.30
2022-11-17T05:12:24.017Z,10.30
2022-11-17T05:14:52.328Z,10.40
2022-11-17T05:17:19.279Z,10.40
2022-11-17T05:19:49.715Z,10.40
2022-11-17T05:22:38.728Z,10.40
2022-11-17T05:25:07.496Z,10.40
2022-11-17T05:27:36.720Z,10.40
2022-11-17T05:30:06.458Z,10.40
2022-11-17T05:32:34.400Z,10.40
2022-11-17T05:35:03.739Z,10.30
2022-11-17T05:37:31.660Z,10.20
2022-11-17T05:39:59.580Z,10.20
2022-11-17T05:42:27.555Z,10.20
2022-11-17T05:44:55.458Z,10.20
2022-11-17T05:47:23.398Z,10.20
2022-11-17T05:49:51.326Z,10.30
2022-11-17T05:52:20.575Z,10.30
2022-11-17T05:54:48.494Z,10.30
2022-11-17T05:57:28.976Z,10.30
2022-11-17T06:00:00.376Z,10.30
2022-11-17T06:02:33.020Z,10.40
2022-11-17T06:05:00.951Z,10.50
2022-11-17T06:07:30.430Z,10.50
2022-11-17T06:09:58.461Z,10.50
2022-11-17T06:12:26.382Z,10.60
2022-11-17T06:14:54.347Z,10.60
2022-11-17T06:17:26.211Z,10.50
2022-11-17T06:19:58.816Z,10.50
2022-11-17T06:22:27.884Z,10.50
2022-11-17T06:24:57.686Z,10.50
2022-11-17T06:27:26.544Z,10.50
2022-11-17T06:29:55.464Z,10.50
2022-11-17T06:32:23.855Z,10.40
2022-11-17T06:34:56.155Z,10.40
2022-11-17T06:37:24.741Z,10.50
2022-11-17T06:39:52.738Z,10.50
2022-11-17T06:42:42.768Z,10.50
2022-11-17T06:45:11.545Z,10.60
2022-11-17T06:47:39.541Z,10.60
2022-11-17T06:50:08.218Z,10.60
2022-11-17T06:52:36.125Z,10.60
2022-11-17T06:55:04.091Z,10.50
2022-11-17T06:57:33.385Z,10.50
2022-11-17T07:00:01.396Z,10.50
2022-11-17T07:02:29.374Z,10.40
2022-11-17T07:04:57.384Z,10.40
2022-11-17T07:07:25.471Z,10.40
2022-11-17T07:09:53.500Z,10.40
2022-11-17T07:12:21.440Z,10.40
2022-11-17T07:14:50.732Z,10.40
2022-11-17T07:17:18.796Z,10.30
2022-11-17T07:19:46.797Z,10.20
2022-11-17T07:22:14.737Z,10.10
2022-11-17T07:24:42.725Z,10.10
2022-11-17T07:27:10.844Z,10.10
2022-11-17T07:29:38.785Z,10.20
2022-11-17T07:32:08.533Z,10.20
2022-11-17T07:34:36.518Z,10.20
2022-11-17T07:37:04.505Z,10.30
2022-11-17T07:39:32.457Z,10.20
2022-11-17T07:42:00.502Z,10.20
2022-11-17T07:44:28.524Z,10.10
2022-11-17T07:46:56.644Z,10.20
2022-11-17T07:49:27.094Z,10.20
2022-11-17T07:51:55.346Z,10.20
2022-11-17T07:54:23.387Z,10.20
2022-11-17T07:56:51.348Z,10.30
2022-11-17T07:59:21.520Z,10.40
2022-11-17T08:01:49.687Z,10.30
2022-11-17T08:04:17.733Z,10.30
2022-11-17T08:06:47.091Z,10.40
2022-11-17T08:09:16.406Z,10.40
2022-11-17T08:11:44.369Z,10.40
2022-11-17T08:14:12.331Z,10.40
2022-11-17T08:16:40.579Z,10.40
2022-11-17T08:19:08.541Z,10.40
2022-11-17T08:21:38.312Z,10.50
2022-11-17T08:24:08.398Z,10.50
2022-11-17T08:26:36.411Z,10.50
2022-11-17T08:29:04.771Z,10.50
2022-11-17T08:31:32.747Z,10.50
2022-11-17T08:34:00.720Z,10.50
2022-11-17T08:36:28.695Z,10.40
2022-11-17T08:38:56.743Z,10.40
2022-11-17T08:41:26.600Z,10.40
2022-11-17T08:43:54.614Z,10.30
2022-11-17T08:46:22.901Z,10.30
2022-11-17T08:48:53.880Z,10.20
2022-11-17T08:51:24.969Z,10.10
2022-11-17T08:53:53.002Z,10.20
2022-11-17T08:56:21.176Z,10.20
2022-11-17T08:58:50.516Z,10.40
2022-11-17T09:01:19.005Z,10.50
2022-11-17T09:03:49.487Z,10.60
2022-11-17T09:06:18.428Z,10.80
2022-11-17T09:08:47.385Z,10.80
2022-11-17T09:11:16.740Z,10.70
2022-11-17T09:13:45.764Z,10.70
2022-11-17T09:16:16.156Z,10.70
2022-11-17T09:18:44.422Z,10.70
2022-11-17T09:21:15.943Z,10.60
2022-11-17T09:23:44.391Z,10.50
2022-11-17T09:26:14.423Z,10.30
2022-11-17T09:28:42.807Z,10.30
2022-11-17T09:31:12.271Z,10.30
2022-11-17T09:33:42.145Z,10.30
2022-11-17T09:36:10.975Z,10.30
2022-11-17T09:38:40.210Z,10.20
2022-11-17T09:41:26.258Z,10.20
2022-11-17T09:44:05.077Z,10.20
2022-11-17T09:46:45.764Z,10.20
2022-11-17T09:49:24.148Z,10.20
2022-11-17T09:51:52.950Z,10.20
2022-11-17T09:54:27.385Z,10.10
2022-11-17T09:56:57.487Z,10.10
2022-11-17T09:59:31.119Z,10.10
2022-11-17T10:01:59.756Z,10.10
2022-11-17T10:04:30.996Z,10.20
2022-11-17T10:06:59.506Z,10.10
2022-11-17T10:09:36.694Z,10.10
2022-11-17T10:12:16.493Z,10.00
2022-11-17T10:14:44.524Z,10.00
2022-11-17T10:17:13.563Z,10.00
2022-11-17T10:19:45.247Z,10.10
2022-11-17T10:22:35.491Z,10.30
2022-11-17T10:25:03.557Z,10.60
2022-11-17T10:27:33.273Z,10.70
2022-11-17T10:30:03.218Z,10.90
2022-11-17T10:32:33.786Z,10.90
2022-11-17T10:35:16.396Z,11.00
2022-11-17T10:37:53.192Z,11.00
2022-11-17T10:40:25.624Z,11.10
2022-11-17T10:43:21.982Z,11.10
2022-11-17T10:45:52.463Z,11.20
2022-11-17T10:48:26.171Z,11.30
2022-11-17T10:50:57.638Z,11.40
2022-11-17T10:53:43.024Z,11.40
2022-11-17T10:56:15.472Z,11.40
2022-11-17T10:59:00.481Z,11.20
2022-11-17T11:01:30.583Z,11.20
2022-11-17T11:03:58.561Z,11.10
2022-11-17T11:06:29.758Z,10.90
2022-11-17T11:09:01.449Z,10.90
2022-11-17T11:11:39.237Z,10.90
2022-11-17T11:14:15.508Z,11.00
2022-11-17T11:16:48.259Z,11.20
2022-11-17T11:19:18.506Z,11.20
2022-11-17T11:22:09.641Z,11.40
2022-11-17T11:24:46.151Z,11.40
2022-11-17T11:27:30.641Z,11.40
2022-11-17T11:30:04.205Z,11.40
2022-11-17T11:32:41.971Z,11.40
2022-11-17T11:35:46.107Z,11.50
2022-11-17T11:38:30.190Z,11.50
2022-11-17T11:41:09.104Z,11.60
2022-11-17T11:43:45.429Z,11.60
2022-11-17T11:46:18.791Z,11.60
2022-11-17T11:48:51.121Z,11.70
2022-11-17T11:51:23.594Z,11.70
2022-11-17T11:53:58.602Z,11.70
2022-11-17T11:56:32.997Z,11.70
2022-11-17T11:59:05.269Z,11.70
2022-11-17T12:01:43.344Z,11.70
2022-11-17T12:04:23.494Z,11.80
2022-11-17T12:06:57.166Z,11.90
2022-11-17T12:09:47.894Z,11.90
2022-11-17T12:12:18.453Z,12.10
2022-11-17T12:15:10.599Z,12.20
2022-11-17T12:17:39.437Z,12.40
2022-11-17T12:20:49.614Z,12.40
2022-11-17T12:23:26.270Z,12.50
2022-11-17T12:25:57.995Z,12.50
2022-11-17T12:28:35.696Z,12.40
2022-11-17T12:31:09.800Z,12.30
2022-11-17T12:34:11.306Z,12.10
2022-11-17T12:36:39.567Z,11.90
2022-11-17T12:39:29.186Z,11.70
2022-11-17T12:42:08.632Z,11.60
2022-11-17T12:44:51.179Z,11.50
2022-11-17T12:47:21.412Z,11.40
2022-11-17T12:50:02.001Z,11.40
2022-11-17T12:52:38.848Z,11.40
2022-11-17T12:55:18.004Z,11.50
2022-11-17T12:57:53.077Z,11.50
2022-11-17T13:00:24.467Z,11.60
2022-11-17T13:03:00.336Z,11.60
2022-11-17T13:05:30.160Z,11.70
2022-11-17T13:08:28.129Z,11.70
2022-11-17T13:11:05.395Z,11.60
2022-11-17T13:13:37.011Z,11.40
2022-11-17T13:16:06.157Z,11.30
2022-11-17T13:18:37.251Z,11.30
2022-11-17T13:21:15.990Z,11.30
2022-11-17T13:23:45.513Z,11.20
2022-11-17T13:26:21.707Z,11.00
2022-11-17T13:29:04.225Z,11.00
2022-11-17T13:31:32.253Z,11.00
2022-11-17T13:34:05.133Z,11.10
2022-11-17T13:36:33.407Z,11.20
2022-11-17T13:39:02.805Z,11.20
2022-11-17T13:41:35.437Z,11.20
2022-11-17T13:44:05.335Z,11.30
2022-11-17T13:46:35.473Z,11.30
2022-11-17T13:49:33.943Z,11.20
2022-11-17T13:52:02.311Z,11.20
2022-11-17T13:54:30.761Z,11.20
2022-11-17T13:57:04.677Z,11.10
2022-11-17T13:59:35.469Z,11.00
2022-11-17T14:02:25.063Z,10.90
2022-11-17T14:05:20.094Z,10.90
2022-11-17T14:07:48.226Z,10.80
2022-11-17T14:10:28.225Z,10.70
2022-11-17T14:13:27.989Z,10.60
2022-11-17T14:15:59.092Z,10.60
2022-11-17T14:18:34.212Z,10.70
2022-11-17T14:21:10.478Z,10.80
2022-11-17T14:23:38.975Z,10.70
2022-11-17T14:26:07.191Z,10.60
2022-11-17T14:28:36.496Z,10.50
2022-11-17T14:31:04.414Z,10.40
2022-11-17T14:33:32.386Z,10.30
2022-11-17T14:36:01.098Z,10.20
2022-11-17T14:38:29.424Z,10.10
2022-11-17T14:40:57.341Z,10.10
2022-11-17T14:43:25.354Z,10.10
2022-11-17T14:45:54.632Z,10.00
2022-11-17T14:48:22.826Z,10.00
2022-11-17T14:50:57.274Z,10.10
2022-11-17T14:53:26.001Z,10.10
2022-11-17T14:55:54.478Z,10.20
2022-11-17T14:58:22.393Z,10.30
2022-11-17T15:00:50.975Z,10.30
2022-11-17T15:03:20.427Z,10.30
2022-11-17T15:05:48.472Z,10.30
2022-11-17T15:08:16.391Z,10.40
2022-11-17T15:10:45.361Z,10.40
2022-11-17T15:13:13.470Z,10.40
2022-11-17T15:15:42.653Z,10.40
2022-11-17T15:18:12.420Z,10.40
2022-11-17T15:20:41.698Z,10.40
2022-11-17T15:23:09.613Z,10.40
2022-11-17T15:25:38.882Z,10.30
2022-11-17T15:28:06.884Z,10.30
2022-11-17T15:30:34.949Z,10.30
2022-11-17T15:33:02.893Z,10.30
2022-11-17T15:35:31.061Z,10.20
2022-11-17T15:38:00.419Z,10.20
2022-11-17T15:40:28.422Z,10.20
2022-11-17T15:42:56.698Z,10.20
2022-11-17T15:45:24.945Z,10.20
2022-11-17T15:47:52.912Z,10.20
2022-11-17T15:50:20.871Z,10.20
2022-11-17T15:53:03.561Z,10.20
2022-11-17T15:55:35.009Z,10.20
2022-11-17T15:58:03.276Z,10.20
2022-11-17T16:00:33.821Z,10.20
2022-11-17T16:03:01.972Z,10.20
2022-11-17T16:05:29.943Z,10.20
2022-11-17T16:07:59.022Z,10.20
2022-11-17T16:10:27.330Z,10.20
2022-11-17T16:12:57.388Z,10.10
2022-11-17T16:15:25.420Z,10.10
2022-11-17T16:17:53.631Z,10.10
2022-11-17T16:20:21.631Z,10.10
2022-11-17T16:22:49.646Z,10.00
2022-11-17T16:25:17.762Z,10.00
2022-11-17T16:27:45.723Z,10.00
2022-11-17T16:30:15.868Z,10.00
2022-11-17T16:32:43.802Z,9.90
2022-11-17T16:35:11.739Z,9.80
2022-11-17T16:37:39.711Z,9.80
2022-11-17T16:40:08.552Z,9.80
2022-11-17T16:42:36.739Z,9.80
2022-11-17T16:45:05.125Z,9.80
2022-11-17T16:47:35.112Z,9.80
2022-11-17T16:50:03.917Z,9.80
2022-11-17T16:52:31.907Z,9.90
2022-11-17T16:55:04.528Z,9.90
2022-11-17T16:57:33.169Z,9.90
2022-11-17T17:00:01.121Z,9.80
2022-11-17T17:02:29.208Z,9.80
2022-11-17T17:04:58.541Z,9.80
2022-11-17T17:07:26.572Z,9.70
2022-11-17T17:09:54.615Z,9.60
2022-11-17T17:12:22.536Z,9.40
2022-11-17T17:14:50.590Z,9.40
2022-11-17T17:17:18.511Z,9.40
2022-11-17T17:19:46.543Z,9.20
2022-11-17T17:22:15.885Z,9.10
2022-11-17T17:24:43.894Z,9.00
2022-11-17T17:27:11.873Z,9.00
2022-11-17T17:29:39.956Z,9.00
2022-11-17T17:32:07.948Z,8.90
2022-11-17T17:34:35.937Z,8.90
2022-11-17T17:37:03.925Z,8.90
2022-11-17T17:39:33.594Z,8.80
2022-11-17T17:42:01.557Z,8.80
2022-11-17T17:44:29.503Z,8.80
2022-11-17T17:46:57.848Z,8.80
2022-11-17T17:49:25.950Z,8.70
2022-11-17T17:51:53.851Z,8.70
2022-11-17T17:54:24.006Z,8.60
2022-11-17T17:56:53.707Z,8.60
2022-11-17T17:59:21.728Z,8.50
2022-11-17T18:01:49.736Z,8.50
2022-11-17T18:04:17.803Z,8.50
2022-11-17T18:06:47.915Z,8.50
2022-11-17T18:09:19.501Z,8.50
2022-11-17T18:11:50.066Z,8.50
2022-11-17T18:14:24.103Z,8.60
2022-11-17T18:16:52.663Z,8.70
2022-11-17T18:19:20.995Z,8.80
2022-11-17T18:21:48.995Z,8.90
2022-11-17T18:24:17.036Z,8.90
2022-11-17T18:26:45.068Z,9.00
2022-11-17T18:29:16.364Z,9.10
2022-11-17T18:31:47.371Z,9.20
2022-11-17T18:34:18.687Z,9.20
2022-11-17T18:36:46.646Z,9.20
2022-11-17T18:39:15.950Z,9.30
2022-11-17T18:41:44.437Z,9.30
2022-11-17T18:44:13.155Z,9.30
2022-11-17T18:46:41.540Z,9.40
2022-11-17T18:49:10.974Z,9.40
2022-11-17T18:51:39.487Z,9.50
2022-11-17T18:54:08.044Z,9.50
2022-11-17T18:56:37.360Z,9.50
2022-11-17T18:59:11.740Z,9.60
2022-11-17T19:01:41.407Z,9.60
2022-11-17T19:04:12.739Z,9.70
2022-11-17T19:06:41.224Z,9.70
2022-11-17T19:09:09.327Z,9.70
2022-11-17T19:11:37.545Z,9.80
2022-11-17T19:14:05.822Z,9.70
2022-11-17T19:16:42.604Z,9.80
2022-11-17T19:19:15.158Z,9.80
2022-11-17T19:21:43.843Z,9.70
2022-11-17T19:24:12.097Z,9.70
2022-11-17T19:26:40.214Z,9.80
2022-11-17T19:29:16.595Z,9.70
2022-11-17T19:31:45.437Z,9.80
2022-11-17T19:34:15.290Z,9.80
2022-11-17T19:36:44.376Z,9.80
2022-11-17T19:39:13.099Z,9.80
2022-11-17T19:41:41.448Z,9.80
2022-11-17T19:44:10.414Z,9.80
2022-11-17T19:46:38.913Z,9.80
2022-11-17T19:49:08.743Z,9.80
2022-11-17T19:51:38.292Z,9.80
2022-11-17T19:54:08.156Z,9.80
2022-11-17T19:56:38.205Z,9.80
2022-11-17T19:59:09.685Z,9.70
2022-11-17T20:01:40.515Z,9.70
2022-11-17T20:04:08.918Z,9.70
2022-11-17T20:06:39.692Z,9.60
2022-11-17T20:09:09.125Z,9.50
2022-11-17T20:11:37.532Z,9.30
2022-11-17T20:14:05.726Z,9.20
2022-11-17T20:16:33.851Z,9.20
2022-11-17T20:19:03.188Z,9.20
2022-11-17T20:21:31.770Z,9.20
2022-11-17T20:24:01.797Z,9.30
2022-11-17T20:26:31.843Z,9.30
2022-11-17T20:29:00.991Z,9.40
2022-11-17T20:31:30.673Z,9.50
2022-11-17T20:34:00.666Z,9.50
2022-11-17T20:36:30.123Z,9.50
2022-11-17T20:39:01.229Z,9.50
2022-11-17T20:41:29.780Z,9.50
2022-11-17T20:43:59.549Z,9.50
2022-11-17T20:46:27.933Z,9.50
2022-11-17T20:48:56.072Z,9.50
2022-11-17T20:51:25.838Z,9.50
2022-11-17T20:53:53.846Z,9.50
2022-11-17T20:56:23.579Z,9.50
2022-11-17T20:58:51.776Z,9.50
2022-11-17T21:01:23.086Z,9.50
2022-11-17T21:03:51.350Z,9.40
2022-11-17T21:06:22.836Z,9.40
2022-11-17T21:08:50.991Z,9.40
2022-11-17T21:11:34.294Z,9.40
2022-11-17T21:14:04.003Z,9.40
2022-11-17T21:16:32.034Z,9.40
2022-11-17T21:18:59.991Z,9.30
2022-11-17T21:21:27.985Z,9.30
2022-11-17T21:23:56.457Z,9.30
2022-11-17T21:26:24.654Z,9.30
2022-11-17T21:28:53.523Z,9.30
2022-11-17T21:31:24.849Z,9.30
2022-11-17T21:33:54.631Z,9.20
2022-11-17T21:36:24.020Z,9.20
2022-11-17T21:38:52.254Z,9.10
2022-11-17T21:41:21.917Z,9.00
2022-11-17T21:43:51.922Z,9.00
2022-11-17T21:46:22.567Z,8.90
2022-11-17T21:48:51.456Z,8.90
2022-11-17T21:51:21.133Z,8.80
2022-11-17T21:53:53.054Z,8.80
2022-11-17T21:56:21.015Z,8.80
2022-11-17T21:58:48.947Z,8.70
2022-11-17T22:01:17.472Z,8.70
2022-11-17T22:03:46.817Z,8.70
2022-11-17T22:06:17.996Z,8.60
2022-11-17T22:08:47.724Z,8.60
2022-11-17T22:11:34.799Z,8.60
2022-11-17T22:14:04.531Z,8.50
2022-11-17T22:16:33.153Z,8.50
2022-11-17T22:19:02.967Z,8.50
2022-11-17T22:21:31.185Z,8.50
2022-11-17T22:23:59.288Z,8.50
2022-11-17T22:26:27.374Z,8.50
2022-11-17T22:28:56.790Z,8.50
2022-11-17T22:31:24.910Z,8.60
2022-11-17T22:33:53.133Z,8.60
2022-11-17T22:36:22.725Z,8.60
2022-11-17T22:38:51.581Z,8.60
2022-11-17T22:41:20.821Z,8.70
2022-11-17T22:43:51.990Z,8.70
2022-11-17T22:46:21.118Z,8.70
2022-11-17T22:48:49.416Z,8.70
2022-11-17T22:51:38.430Z,8.70
2022-11-17T22:54:08.827Z,8.80
2022-11-17T22:56:37.923Z,8.80
2022-11-17T22:59:06.063Z,8.80
2022-11-17T23:01:34.156Z,8.80
2022-11-17T23:04:02.164Z,8.70
2022-11-17T23:06:30.167Z,8.70
2022-11-17T23:08:58.484Z,8.60
2022-11-17T23:11:37.434Z,8.60
2022-11-17T23:14:06.882Z,8.60
2022-11-17T23:16:34.862Z,8.60
2022-11-17T23:19:02.808Z,8.60
2022-11-17T23:21:30.785Z,8.60
2022-11-17T23:23:58.828Z,8.50
2022-11-17T23:26:28.153Z,8.50
2022-11-17T23:28:56.106Z,8.50
2022-11-17T23:31:24.109Z,8.40
2022-11-17T23:33:52.084Z,8.40
2022-11-17T23:36:22.094Z,8.30
2022-11-17T23:38:51.282Z,8.40
2022-11-17T23:41:23.299Z,8.40
2022-11-17T23:43:54.282Z,8.40
2022-11-17T23:46:24.934Z,8.40
2022-11-17T23:48:53.454Z,8.50
2022-11-17T23:51:23.065Z,8.60
2022-11-17T23:53:51.363Z,8.60
2022-11-17T23:56:20.505Z,8.60
2022-11-17T23:58:48.787Z,8.60
